Terminal Aerodrome Forecast
Issued by NWS

Home | Current Version | Previous Version | Text Only | Print | Product List | Glossary On
Versions: 1 2 3 4 5 6 7 8 9 10 11 12 13 14 15 16 17 18 19 20 21 22 23
000
FTUS43 KGRB 282330
TAFCWA
TAF
KCWA 282330Z 2900/2924 19008G15KT P6SM SCT040 BKN070
     FM290100 19006KT P6SM SCT040 BKN060
      TEMPO 2901/2904 2SM TSRA BKN020CB OVC035
     FM290400 19006KT P6SM VCSH BKN035
     FM291100 22005KT 3SM -SHRA OVC007
     FM291600 26011KT P6SM -SHRA OVC015
     FM291900 26012KT P6SM VCSH BKN020
     FM292200 27012KT P6SM VCSH BKN035
      AMD LTD TO CLD VIS AND WIND 2903/2911=

USA.gov is the U.S. government's official web portal to all federal, state and local government web resources and services.